• Join FlightAware (Why Join?)
  • Login
  • US Flag 
02:20PM EDT


 

Airport Tracker/Info


-or-


 

Live Flight TrackerFlight Track Log ✈ UCA3598 ✈ 22-Nov-2013 ✈ KIAD - KBGM

Flight Track Log - Related Links

Times and Time Zones

All times are in EST time to prevent confusion due to time zone crossing. See the UCA3598 flight status page for this flight to view local times or setup timezone preferences in your user account.

Time Position Orientation Groundspeed Altitude Reporting Facility
EST Latitude Longitude Course Direction KTS MPH feet Rate Location/Type
10:21PM 39.0000 -77.4833 North 151 174 3,700  Level Potomac TRACON
10:22PM 39.0500 -77.5000 345° North 165 190 5,100 1,500 Climbing Potomac TRACON
10:23PM 39.1000 -77.5167 345° North 169 194 6,800 1,560 Climbing Potomac TRACON
10:25PM 39.1956 -77.5519 344° North 168 193 10,600 1,620 Climbing Washington Center
10:26PM 39.5961 -77.4500 North  Level FlightAware Approximate
10:26PM 39.2478 -77.5372 12° North 168 193 12,300  Level Washington Center
10:27PM 39.3044 -77.5256 North 188 216 13,000 300 Climbing Washington Center
10:28PM 39.3753 -77.5111 North 219 252 13,000  Level Washington Center
10:29PM 39.4486 -77.4944 10° North 246 283 13,000 240 Level Washington Center
10:30PM 39.5239 -77.4803 North 259 298 13,500 600 Climbing Washington Center
10:31PM 39.5928 -77.4658 North 259 298 14,300 1,080 Climbing Washington Center
10:32PM 39.6364 -77.4542 12° North 261 300 15,200 1,080 Climbing New York Center
10:33PM 39.7011 -77.4522 North 252 290 16,000 360 Climbing New York Center
10:34PM 39.7742 -77.4511 North 257 296 16,000  Level New York Center
10:35PM 39.8494 -77.4503 360° North 257 296 16,000  Level New York Center
10:36PM 39.9247 -77.4464 North 268 308 16,000  Level New York Center
10:37PM 39.9994 -77.4483 359° North 273 314 16,000  Level New York Center
10:38PM 40.0767 -77.4475 360° North 273 314 16,000  Level New York Center
10:40PM 40.2311 -77.4461 360° North 273 314 16,000  Level New York Center
10:41PM 40.3064 -77.4450 North 273 314 16,000  Level New York Center
10:42PM 40.3753 -77.4408 North 273 314 16,000  Level New York Center
10:43PM 40.4606 -77.4436 359° North 273 314 16,000  Level New York Center
10:44PM 40.5275 -77.4419 North 273 314 16,000  Level New York Center
10:45PM 40.6147 -77.4094 16° North 273 314 16,000  Level New York Center
10:46PM 40.6825 -77.3503 33° Northeast 297 342 16,100  Climbing New York Center
10:47PM 40.7633 -77.2867 31° Northeast 309 356 16,000 -60 Descending New York Center
10:48PM 40.8394 -77.2253 31° Northeast 314 361 16,000  Level New York Center
10:49PM 40.9181 -77.1642 30° Northeast 314 361 16,000  Level New York Center
10:50PM 40.9964 -77.1000 32° Northeast 314 361 16,000  Level New York Center
10:51PM 41.0728 -77.0356 32° Northeast 319 367 16,000  Level New York Center
10:52PM 41.1533 -76.9714 31° Northeast 325 374 16,000  Level New York Center
10:53PM 41.2183 -76.9192 31° Northeast 330 380 16,000  Level New York Center
10:54PM 41.3033 -76.8497 32° Northeast 330 380 16,000  Level New York Center
10:55PM 41.3839 -76.7822 32° Northeast 335 386 16,000  Level New York Center
10:56PM 41.4619 -76.7200 31° Northeast 335 386 16,000  Level New York Center
10:57PM 41.5447 -76.6469 33° Northeast 335 386 16,000 -480 Level New York Center
10:58PM 41.6142 -76.5919 31° Northeast 330 380 15,100 -1,140 Descending New York Center
10:59PM 41.6808 -76.5033 45° Northeast 330 380 13,800 -3,060 Descending New York Center
11:00PM 41.7400 -76.3972 53° Northeast 324 373 9,000 -1,800 Descending New York Center
11:01PM 41.7897 -76.3153 51° Northeast 300 345 10,300 -300 Climbing New York Center
11:02PM 41.8333 -76.2297 56° Northeast 284 327 8,500 -1,800 Descending New York Center
11:03PM 41.8719 -76.1578 54° Northeast 271 312 6,800 -1,740 Descending New York Center
11:04PM 41.9150 -76.0778 54° Northeast 260 299 5,100 -1,500 Descending New York Center
11:05PM 41.9583 -75.9975 54° Northeast 250 288 3,900 -600 Descending New York Center
11:06PM 41.9967 -75.9253 54° Northeast 245 282 3,900  Level New York Center
11:07PM 42.0264 -75.8689 55° Northeast 217 250 3,900  Level New York Center
11:08PM 42.0658 -75.8664 North 169 194 3,900  Level New York Center
11:09PM 42.0983 -75.8883 333° Northwest 133 153 3,900 -300 Level New York Center
11:10PM 42.1283 -75.9158 326° Northwest 121 139 3,300 -600 Descending New York Center
11:11PM 42.1506 -75.9344 328° Northwest 115 132 2,800 -600 Descending New York Center
11:12PM 42.1747 -75.9531 330° Northwest 104 120 2,200 -600 Descending New York Center